createdAt,value
2018-05-24T00:02:12.688Z,2.00
2018-05-24T00:04:40.902Z,1.70
2018-05-24T00:07:09.091Z,1.90
2018-05-24T00:09:37.287Z,1.80
2018-05-24T00:12:05.503Z,1.53
2018-05-24T00:14:33.696Z,1.60
2018-05-24T00:17:01.902Z,1.80
2018-05-24T00:19:30.096Z,1.70
2018-05-24T00:21:58.291Z,1.73
2018-05-24T00:24:27.271Z,1.60
2018-05-24T00:26:56.239Z,1.60
2018-05-24T00:29:24.449Z,1.90
2018-05-24T00:31:52.663Z,1.47
2018-05-24T00:34:20.873Z,1.50
2018-05-24T00:36:49.079Z,1.60
2018-05-24T00:39:17.272Z,1.67
2018-05-24T00:41:45.496Z,1.63
2018-05-24T00:44:13.735Z,1.90
2018-05-24T00:46:41.950Z,1.73
2018-05-24T00:49:10.936Z,1.87
2018-05-24T00:51:39.316Z,1.60
2018-05-24T00:54:07.479Z,1.50
2018-05-24T00:56:35.688Z,1.57
2018-05-24T00:59:03.882Z,2.33
2018-05-24T01:01:32.083Z,1.47
2018-05-24T01:04:00.280Z,1.40
2018-05-24T01:06:28.478Z,1.60
2018-05-24T01:08:56.675Z,1.47
2018-05-24T01:11:24.896Z,1.60
2018-05-24T01:13:53.103Z,1.67
2018-05-24T01:16:21.299Z,1.70
2018-05-24T01:18:49.495Z,1.30
2018-05-24T01:21:17.710Z,1.30
2018-05-24T01:23:45.919Z,1.30
2018-05-24T01:26:14.114Z,1.43
2018-05-24T01:28:42.322Z,1.60
2018-05-24T01:31:10.531Z,1.50
2018-05-24T01:33:38.734Z,1.23
2018-05-24T01:36:06.961Z,1.37
2018-05-24T01:38:35.138Z,1.13
2018-05-24T01:41:03.393Z,1.40
2018-05-24T01:43:31.567Z,1.40
2018-05-24T01:46:00.538Z,1.53
2018-05-24T01:48:28.739Z,1.63
2018-05-24T01:50:57.718Z,1.10
2018-05-24T01:53:26.571Z,1.30
2018-05-24T01:55:54.787Z,1.43
2018-05-24T01:58:22.994Z,1.50
2018-05-24T02:00:51.189Z,1.60
2018-05-24T02:03:19.401Z,1.60
2018-05-24T02:05:47.622Z,1.40
2018-05-24T02:08:15.823Z,1.40
2018-05-24T02:10:44.017Z,1.90
2018-05-24T02:13:12.247Z,1.23
2018-05-24T02:15:40.453Z,1.30
2018-05-24T02:18:08.647Z,1.50
2018-05-24T02:20:37.652Z,1.10
2018-05-24T02:23:06.622Z,1.40
2018-05-24T02:25:34.839Z,1.30
2018-05-24T02:28:03.070Z,1.27
2018-05-24T02:30:31.260Z,1.50
2018-05-24T02:32:59.485Z,1.20
2018-05-24T02:35:27.692Z,1.30
2018-05-24T02:37:55.886Z,1.63
2018-05-24T02:40:24.091Z,1.60
2018-05-24T02:42:52.302Z,1.30
2018-05-24T02:45:20.509Z,1.10
2018-05-24T02:47:48.704Z,1.60
2018-05-24T02:50:16.933Z,1.67
2018-05-24T02:52:45.131Z,1.10
2018-05-24T02:55:13.331Z,1.50
2018-05-24T02:57:41.548Z,1.27
2018-05-24T03:00:09.747Z,1.30
2018-05-24T03:02:37.967Z,1.40
2018-05-24T03:05:06.264Z,1.27
2018-05-24T03:07:34.482Z,1.40
2018-05-24T03:10:02.697Z,1.37
2018-05-24T03:12:30.882Z,1.40
2018-05-24T03:14:59.075Z,1.37
2018-05-24T03:17:27.271Z,1.00
2018-05-24T03:19:55.618Z,1.43
2018-05-24T03:22:23.873Z,1.40
2018-05-24T03:24:52.085Z,1.40
2018-05-24T03:27:21.058Z,1.50
2018-05-24T03:29:49.263Z,1.70
2018-05-24T03:32:17.478Z,1.23
2018-05-24T03:34:45.718Z,1.13
2018-05-24T03:37:13.914Z,1.20
2018-05-24T03:39:42.139Z,1.43
2018-05-24T03:42:11.121Z,1.40
2018-05-24T03:44:39.315Z,1.33
2018-05-24T03:47:07.523Z,1.60
2018-05-24T03:49:35.751Z,1.40
2018-05-24T03:52:04.033Z,1.50
2018-05-24T03:54:32.159Z,1.60
2018-05-24T03:57:00.363Z,1.50
2018-05-24T04:02:52.982Z,1.80
2018-05-24T04:05:21.202Z,1.63
2018-05-24T04:07:49.396Z,1.20
2018-05-24T04:10:17.596Z,1.20
2018-05-24T04:12:45.801Z,1.50
2018-05-24T04:15:14.019Z,1.77
2018-05-24T04:17:42.263Z,1.67
2018-05-24T04:20:11.359Z,1.40
2018-05-24T04:22:40.207Z,1.50
2018-05-24T04:25:08.415Z,1.70
2018-05-24T04:27:36.619Z,1.70
2018-05-24T04:30:04.836Z,1.57
2018-05-24T04:32:33.036Z,1.90
2018-05-24T04:35:01.246Z,1.53
2018-05-24T04:37:29.494Z,1.63
2018-05-24T04:39:58.484Z,1.50
2018-05-24T04:42:26.690Z,1.30
2018-05-24T04:44:54.919Z,1.30
2018-05-24T04:47:23.115Z,1.60
2018-05-24T04:49:51.330Z,1.20
2018-05-24T04:52:19.531Z,1.53
2018-05-24T04:54:47.746Z,1.30
2018-05-24T04:57:15.955Z,1.50
2018-05-24T04:59:44.170Z,1.67
2018-05-24T05:02:12.370Z,1.57
2018-05-24T05:04:40.573Z,1.80
2018-05-24T05:07:08.790Z,1.50
2018-05-24T05:09:36.990Z,1.43
2018-05-24T05:12:05.198Z,1.80
2018-05-24T05:14:33.438Z,1.50
2018-05-24T05:17:01.612Z,1.57
2018-05-24T05:19:29.883Z,1.60
2018-05-24T05:21:58.127Z,1.30
2018-05-24T05:24:26.327Z,1.30
2018-05-24T05:26:54.535Z,1.53
2018-05-24T05:29:22.759Z,1.60
2018-05-24T05:31:51.750Z,1.60
2018-05-24T05:34:20.230Z,1.60
2018-05-24T05:36:48.402Z,1.47
2018-05-24T05:39:17.361Z,1.33
2018-05-24T05:41:45.588Z,1.80
2018-05-24T05:44:13.806Z,1.83
2018-05-24T05:46:42.035Z,1.70
2018-05-24T05:49:10.233Z,1.50
2018-05-24T05:51:38.479Z,1.30
2018-05-24T05:54:06.690Z,1.60
2018-05-24T05:56:35.663Z,1.37
2018-05-24T05:59:03.909Z,1.70
2018-05-24T06:01:32.160Z,1.53
2018-05-24T06:04:00.375Z,1.50
2018-05-24T06:06:28.579Z,1.70
2018-05-24T06:08:56.818Z,1.47
2018-05-24T06:11:25.055Z,1.53
2018-05-24T06:13:53.473Z,1.50
2018-05-24T06:16:21.824Z,1.63
2018-05-24T06:18:50.024Z,1.40
2018-05-24T06:21:18.267Z,1.57
2018-05-24T06:23:46.491Z,2.00
2018-05-24T06:26:14.714Z,1.50
2018-05-24T06:28:42.920Z,1.20
2018-05-24T06:31:11.135Z,1.33
2018-05-24T06:33:39.347Z,1.50
2018-05-24T06:36:07.727Z,1.70
2018-05-24T06:38:36.692Z,1.83
2018-05-24T06:41:04.891Z,1.60
2018-05-24T06:43:33.126Z,1.97
2018-05-24T06:46:01.416Z,1.63
2018-05-24T06:48:30.307Z,2.03
2018-05-24T06:50:58.518Z,1.70
2018-05-24T06:53:26.727Z,1.67
2018-05-24T06:55:54.924Z,1.70
2018-05-24T06:58:23.157Z,1.80
2018-05-24T07:00:52.107Z,1.30
2018-05-24T07:03:20.314Z,2.03
2018-05-24T07:05:48.594Z,1.90
2018-05-24T07:08:16.738Z,1.50
2018-05-24T07:10:44.958Z,2.10
2018-05-24T07:13:13.158Z,1.90
2018-05-24T07:15:41.367Z,1.50
2018-05-24T07:18:09.581Z,1.50
2018-05-24T07:20:37.909Z,1.70
2018-05-24T07:23:06.129Z,1.90
2018-05-24T07:25:34.455Z,1.47
2018-05-24T07:28:02.677Z,1.53
2018-05-24T07:30:30.963Z,1.90
2018-05-24T07:32:59.206Z,1.60
2018-05-24T07:35:28.245Z,1.67
2018-05-24T07:37:56.560Z,2.03
2018-05-24T07:44:46.970Z,1.97
2018-05-24T07:57:49.014Z,1.63
2018-05-24T08:00:17.214Z,1.47
2018-05-24T08:02:45.412Z,1.30
2018-05-24T08:05:13.631Z,1.70
2018-05-24T08:07:41.846Z,1.80
2018-05-24T08:10:10.055Z,1.70
2018-05-24T08:12:38.280Z,1.93
2018-05-24T08:15:06.493Z,1.53
2018-05-24T08:17:34.682Z,1.70
2018-05-24T08:20:03.659Z,1.93
2018-05-24T08:22:31.857Z,1.93
2018-05-24T08:25:00.066Z,1.80
2018-05-24T08:27:28.259Z,1.60
2018-05-24T08:29:56.466Z,1.50
2018-05-24T08:32:24.687Z,2.00
2018-05-24T08:34:53.908Z,1.70
2018-05-24T08:37:22.115Z,1.53
2018-05-24T08:39:50.319Z,1.80
2018-05-24T08:42:18.522Z,2.30
2018-05-24T08:44:46.729Z,1.50
2018-05-24T08:47:14.948Z,1.63
2018-05-24T08:49:43.131Z,1.53
2018-05-24T08:52:11.349Z,1.70
2018-05-24T08:54:39.623Z,1.40
2018-05-24T08:57:07.819Z,1.83
2018-05-24T08:59:36.015Z,2.00
2018-05-24T09:02:04.228Z,1.80
2018-05-24T09:04:32.422Z,1.63
2018-05-24T09:07:00.623Z,1.90
2018-05-24T09:09:28.820Z,1.67
2018-05-24T09:11:57.018Z,1.80
2018-05-24T09:14:25.222Z,1.63
2018-05-24T09:16:53.416Z,1.80
2018-05-24T09:19:21.616Z,1.60
2018-05-24T09:21:49.902Z,1.80
2018-05-24T09:24:18.054Z,1.73
2018-05-24T09:26:46.248Z,2.00
2018-05-24T09:29:14.453Z,1.70
2018-05-24T09:31:42.683Z,1.80
2018-05-24T09:34:10.884Z,1.60
2018-05-24T09:36:39.078Z,1.60
2018-05-24T09:39:07.291Z,1.70
2018-05-24T09:41:35.490Z,1.57
2018-05-24T09:44:03.705Z,1.80
2018-05-24T09:46:32.697Z,1.60
2018-05-24T09:49:01.667Z,1.97
2018-05-24T09:51:29.875Z,3.37
2018-05-24T09:53:58.093Z,2.37
2018-05-24T09:56:26.359Z,2.33
2018-05-24T09:58:54.571Z,3.13
2018-05-24T10:01:22.771Z,1.80
2018-05-24T10:03:51.003Z,2.60
2018-05-24T10:06:19.196Z,2.63
2018-05-24T10:08:48.158Z,2.43
2018-05-24T10:11:16.361Z,2.37
2018-05-24T10:13:44.556Z,2.27
2018-05-24T10:16:12.819Z,2.03
2018-05-24T10:18:40.976Z,3.33
2018-05-24T10:21:09.174Z,1.87
2018-05-24T10:23:37.427Z,1.97
2018-05-24T10:26:05.699Z,1.90
2018-05-24T10:28:33.873Z,2.13
2018-05-24T10:31:02.078Z,1.80
2018-05-24T10:33:30.277Z,1.73
2018-05-24T10:35:58.476Z,2.40
2018-05-24T10:38:26.684Z,1.80
2018-05-24T10:40:54.907Z,2.30
2018-05-24T10:43:23.106Z,2.20
2018-05-24T10:45:51.302Z,2.10
2018-05-24T10:48:19.498Z,1.90
2018-05-24T10:50:47.718Z,2.27
2018-05-24T10:53:15.908Z,2.27
2018-05-24T10:55:44.118Z,2.20
2018-05-24T10:58:12.322Z,2.00
2018-05-24T11:00:40.542Z,2.00
2018-05-24T11:03:08.845Z,2.23
2018-05-24T11:05:36.959Z,1.80
2018-05-24T11:08:05.164Z,2.10
2018-05-24T11:10:33.362Z,2.03
2018-05-24T11:13:01.567Z,2.10
2018-05-24T11:15:29.772Z,2.10
2018-05-24T11:17:57.972Z,1.93
2018-05-24T11:20:26.168Z,2.00
2018-05-24T11:22:54.375Z,2.20
2018-05-24T11:25:22.571Z,1.90
2018-05-24T11:27:50.770Z,1.80
2018-05-24T11:30:18.978Z,2.20
2018-05-24T11:32:47.180Z,2.27
2018-05-24T11:35:15.386Z,1.87
2018-05-24T11:37:43.583Z,2.40
2018-05-24T11:40:11.792Z,2.03
2018-05-24T11:42:40.002Z,2.20
2018-05-24T11:45:08.207Z,1.70
2018-05-24T11:47:36.527Z,2.13
2018-05-24T11:50:04.712Z,2.40
2018-05-24T11:52:32.920Z,2.10
2018-05-24T11:55:01.131Z,2.33
2018-05-24T11:57:29.459Z,1.97
2018-05-24T11:59:57.618Z,2.30
2018-05-24T12:02:25.826Z,2.07
2018-05-24T12:04:54.024Z,2.10
2018-05-24T12:07:22.234Z,2.20
2018-05-24T12:09:50.486Z,1.83
2018-05-24T12:12:18.641Z,2.27
2018-05-24T12:14:46.836Z,2.00
2018-05-24T12:17:15.083Z,2.13
2018-05-24T12:19:43.307Z,2.13
2018-05-24T12:22:12.283Z,2.30
2018-05-24T12:24:41.253Z,2.10
2018-05-24T12:27:09.443Z,1.93
2018-05-24T12:29:37.643Z,2.30
2018-05-24T12:32:06.499Z,2.10
2018-05-24T12:34:34.687Z,2.50
2018-05-24T12:37:02.887Z,2.27
2018-05-24T12:39:31.122Z,2.53
2018-05-24T12:41:59.325Z,2.20
2018-05-24T12:44:27.526Z,2.27
2018-05-24T12:46:55.731Z,2.03
2018-05-24T12:49:23.937Z,2.67
2018-05-24T12:51:52.923Z,2.33
2018-05-24T12:54:21.115Z,2.40
2018-05-24T12:56:49.311Z,2.13
2018-05-24T12:59:17.514Z,2.30
2018-05-24T13:01:45.731Z,2.27
2018-05-24T13:04:14.016Z,2.13
2018-05-24T13:06:42.153Z,2.13
2018-05-24T13:09:10.353Z,2.30
2018-05-24T13:11:38.555Z,2.30
2018-05-24T13:14:06.780Z,3.00
2018-05-24T13:16:34.989Z,2.53
2018-05-24T13:19:03.178Z,2.50
2018-05-24T13:21:31.382Z,2.50
2018-05-24T13:23:59.583Z,2.30
2018-05-24T13:26:28.560Z,2.83
2018-05-24T13:28:56.766Z,2.40
2018-05-24T13:31:24.973Z,3.13
2018-05-24T13:33:53.167Z,2.73
2018-05-24T13:36:21.363Z,2.33
2018-05-24T13:38:50.335Z,2.60
2018-05-24T13:41:18.559Z,2.53
2018-05-24T13:43:46.755Z,2.90
2018-05-24T13:46:14.962Z,2.87
2018-05-24T13:48:43.164Z,2.87
2018-05-24T13:51:11.367Z,2.73
2018-05-24T13:53:39.576Z,2.97
2018-05-24T13:56:07.863Z,2.90
2018-05-24T13:58:36.063Z,2.70
2018-05-24T14:01:04.311Z,2.80
2018-05-24T14:03:33.283Z,2.90
2018-05-24T14:06:01.488Z,2.67
2018-05-24T14:08:30.454Z,2.73
2018-05-24T14:10:58.658Z,3.20
2018-05-24T14:13:27.619Z,2.70
2018-05-24T14:15:55.818Z,3.20
2018-05-24T14:18:24.055Z,3.10
2018-05-24T14:20:52.246Z,3.23
2018-05-24T14:23:20.445Z,2.83
2018-05-24T14:25:48.642Z,2.97
2018-05-24T14:28:16.878Z,3.20
2018-05-24T14:30:45.179Z,3.50
2018-05-24T14:33:14.162Z,3.20
2018-05-24T14:35:42.364Z,2.83
2018-05-24T14:38:10.558Z,3.10
2018-05-24T14:40:38.760Z,3.17
2018-05-24T14:43:06.978Z,3.43
2018-05-24T14:45:35.181Z,3.30
2018-05-24T14:48:03.371Z,3.07
2018-05-24T14:50:31.579Z,3.20
2018-05-24T14:52:59.778Z,3.13
2018-05-24T14:55:27.990Z,3.23
2018-05-24T14:57:56.187Z,3.10
2018-05-24T15:00:24.382Z,3.40
2018-05-24T15:02:52.600Z,3.40
2018-05-24T15:05:20.822Z,2.77
2018-05-24T15:07:49.027Z,3.00
2018-05-24T15:10:17.244Z,3.13
2018-05-24T15:12:45.443Z,3.10
2018-05-24T15:15:13.648Z,3.90
2018-05-24T15:17:41.846Z,3.30
2018-05-24T15:20:10.060Z,3.50
2018-05-24T15:22:38.255Z,3.40
2018-05-24T15:25:06.456Z,3.57
2018-05-24T15:27:34.747Z,3.67
2018-05-24T15:30:02.947Z,3.13
2018-05-24T15:32:31.153Z,3.30
2018-05-24T15:34:59.359Z,2.70
2018-05-24T15:37:27.559Z,3.40
2018-05-24T15:39:55.764Z,2.93
2018-05-24T15:42:23.964Z,3.10
2018-05-24T15:45:03.902Z,3.30
2018-05-24T15:47:39.563Z,3.83
2018-05-24T15:50:07.807Z,4.47
2018-05-24T15:52:36.099Z,4.13
2018-05-24T15:55:04.414Z,4.70
2018-05-24T15:57:32.797Z,4.37
2018-05-24T16:00:01.035Z,4.40
2018-05-24T16:02:29.252Z,4.90
2018-05-24T16:04:58.250Z,4.67
2018-05-24T16:07:26.447Z,4.93
2018-05-24T16:09:54.658Z,4.90
2018-05-24T16:12:22.947Z,4.70
2018-05-24T16:14:51.132Z,4.93
2018-05-24T16:17:19.342Z,4.53
2018-05-24T16:19:47.563Z,4.87
2018-05-24T16:22:15.763Z,5.07
2018-05-24T16:24:43.988Z,5.83
2018-05-24T16:27:17.895Z,5.87
2018-05-24T16:29:52.142Z,5.40
2018-05-24T16:32:20.355Z,4.63
2018-05-24T16:34:48.571Z,5.37
2018-05-24T16:37:16.795Z,4.83
2018-05-24T16:39:44.991Z,5.07
2018-05-24T16:42:13.983Z,5.23
2018-05-24T16:44:42.212Z,5.53
2018-05-24T16:47:10.435Z,5.07
2018-05-24T16:49:38.643Z,5.33
2018-05-24T16:52:06.854Z,5.63
2018-05-24T16:54:35.214Z,5.57
2018-05-24T16:57:03.391Z,5.90
2018-05-24T16:59:32.363Z,6.47
2018-05-24T17:02:00.567Z,5.43
2018-05-24T17:04:29.531Z,6.40
2018-05-24T17:06:57.727Z,5.97
2018-05-24T17:09:25.946Z,6.10
2018-05-24T17:11:59.956Z,5.83
2018-05-24T17:14:34.143Z,6.57
2018-05-24T17:17:02.346Z,6.43
2018-05-24T17:19:30.564Z,6.33
2018-05-24T17:21:59.553Z,6.40
2018-05-24T17:24:27.762Z,6.73
2018-05-24T17:26:55.984Z,6.37
2018-05-24T17:29:24.204Z,6.47
2018-05-24T17:31:52.407Z,6.57
2018-05-24T17:34:20.759Z,6.00
2018-05-24T17:36:48.979Z,6.30
2018-05-24T17:39:17.209Z,5.60
2018-05-24T17:41:45.403Z,6.50
2018-05-24T17:44:13.607Z,6.83
2018-05-24T17:46:41.806Z,6.80
2018-05-24T17:49:10.771Z,7.07
2018-05-24T17:51:38.994Z,7.20
2018-05-24T17:54:07.204Z,7.87
2018-05-24T17:56:35.432Z,6.80
2018-05-24T17:59:03.638Z,7.23
2018-05-24T18:01:31.842Z,6.90
2018-05-24T18:04:00.058Z,7.40
2018-05-24T18:06:28.271Z,6.53
2018-05-24T18:08:56.458Z,7.23
2018-05-24T18:11:24.827Z,6.13
2018-05-24T18:13:53.031Z,6.63
2018-05-24T18:16:21.299Z,7.30
2018-05-24T18:18:50.278Z,7.80
2018-05-24T18:21:18.503Z,6.67
2018-05-24T18:23:46.712Z,7.10
2018-05-24T18:26:14.907Z,7.73
2018-05-24T18:28:43.295Z,6.90
2018-05-24T18:31:11.556Z,7.53
2018-05-24T18:33:42.268Z,7.67
2018-05-24T18:36:11.634Z,6.73
2018-05-24T18:38:40.812Z,7.07
2018-05-24T18:41:09.843Z,7.40
2018-05-24T18:43:38.218Z,7.03
2018-05-24T18:46:07.363Z,8.17
2018-05-24T18:48:36.885Z,7.53
2018-05-24T18:51:05.324Z,8.30
2018-05-24T18:53:33.633Z,7.50
2018-05-24T18:56:04.145Z,7.37
2018-05-24T18:58:32.346Z,6.60
2018-05-24T19:01:00.579Z,7.70
2018-05-24T19:03:28.873Z,7.90
2018-05-24T19:05:57.041Z,7.33
2018-05-24T19:08:25.357Z,8.27
2018-05-24T19:10:53.563Z,7.53
2018-05-24T19:13:21.819Z,7.70
2018-05-24T19:15:50.762Z,8.17
2018-05-24T19:18:18.975Z,7.80
2018-05-24T19:20:47.227Z,7.73
2018-05-24T19:23:15.400Z,7.63
2018-05-24T19:25:43.638Z,7.13
2018-05-24T19:28:11.876Z,8.40
2018-05-24T19:30:40.851Z,8.37
2018-05-24T19:33:09.084Z,9.07
2018-05-24T19:35:37.391Z,8.30
2018-05-24T19:38:05.599Z,8.83
2018-05-24T19:40:33.824Z,8.77
2018-05-24T19:43:02.815Z,8.20
2018-05-24T19:45:31.041Z,8.30
2018-05-24T19:47:59.263Z,8.40
2018-05-24T19:50:27.512Z,9.17
2018-05-24T19:52:55.735Z,7.97
2018-05-24T19:55:23.943Z,9.10
2018-05-24T19:57:52.206Z,7.93
2018-05-24T20:00:20.461Z,8.70
2018-05-24T20:02:48.691Z,8.17
2018-05-24T20:05:17.695Z,9.10
2018-05-24T20:07:45.946Z,8.67
2018-05-24T20:10:14.171Z,8.37
2018-05-24T20:12:42.390Z,9.57
2018-05-24T20:15:10.625Z,9.43
2018-05-24T20:17:38.867Z,9.33
2018-05-24T20:20:07.073Z,9.23
2018-05-24T20:22:35.404Z,9.33
2018-05-24T20:25:03.666Z,9.67
2018-05-24T20:27:31.913Z,8.83
2018-05-24T20:30:01.042Z,9.67
2018-05-24T20:32:29.996Z,9.10
2018-05-24T20:34:58.556Z,9.07
2018-05-24T20:37:26.774Z,8.57
2018-05-24T20:39:54.982Z,9.20
2018-05-24T20:42:23.194Z,8.73
2018-05-24T20:44:51.428Z,9.13
2018-05-24T20:47:19.649Z,9.43
2018-05-24T20:49:47.864Z,8.83
2018-05-24T20:52:16.304Z,9.37
2018-05-24T20:54:44.516Z,8.70
2018-05-24T20:57:12.727Z,9.00
2018-05-24T20:59:40.984Z,8.90
2018-05-24T21:02:09.215Z,9.47
2018-05-24T21:04:37.439Z,9.30
2018-05-24T21:07:05.718Z,8.20
2018-05-24T21:09:33.874Z,9.23
2018-05-24T21:12:02.101Z,8.83
2018-05-24T21:14:30.382Z,9.93
2018-05-24T21:16:59.255Z,9.90
2018-05-24T21:19:27.493Z,9.37
2018-05-24T21:21:55.706Z,8.77
2018-05-24T21:24:23.939Z,8.77
2018-05-24T21:26:52.994Z,9.83
2018-05-24T21:29:21.271Z,10.20
2018-05-24T21:31:49.503Z,9.07
2018-05-24T21:34:17.711Z,8.70
2018-05-24T21:36:46.032Z,9.10
2018-05-24T21:39:15.018Z,8.83
2018-05-24T21:41:43.397Z,9.90
2018-05-24T21:44:11.738Z,8.93
2018-05-24T21:46:40.146Z,9.57
2018-05-24T21:49:08.374Z,8.87
2018-05-24T21:51:36.618Z,8.17
2018-05-24T21:54:05.616Z,9.53
2018-05-24T21:56:33.863Z,9.33
2018-05-24T21:59:02.108Z,9.57
2018-05-24T22:01:30.390Z,9.43
2018-05-24T22:04:02.265Z,7.20
2018-05-24T22:06:30.578Z,6.77
2018-05-24T22:09:00.641Z,7.83
2018-05-24T22:11:28.906Z,6.87
2018-05-24T22:13:57.983Z,5.97
2018-05-24T22:16:26.364Z,6.00
2018-05-24T22:18:54.595Z,6.10
2018-05-24T22:21:23.578Z,5.50
2018-05-24T22:23:51.780Z,5.67
2018-05-24T22:26:20.009Z,5.50
2018-05-24T22:28:48.227Z,5.60
2018-05-24T22:31:16.452Z,5.47
2018-05-24T22:33:44.658Z,5.83
2018-05-24T22:36:12.858Z,5.10
2018-05-24T22:38:41.059Z,5.53
2018-05-24T22:41:09.275Z,5.37
2018-05-24T22:43:41.941Z,5.20
2018-05-24T22:46:10.244Z,5.10
2018-05-24T22:48:38.498Z,5.30
2018-05-24T22:51:06.695Z,5.27
2018-05-24T22:53:34.973Z,5.37
2018-05-24T22:56:03.154Z,5.27
2018-05-24T22:58:31.359Z,5.63
2018-05-24T23:00:59.563Z,5.63
2018-05-24T23:03:27.829Z,5.23
2018-05-24T23:05:56.051Z,5.10
2018-05-24T23:08:24.243Z,5.17
2018-05-24T23:10:53.229Z,5.03
2018-05-24T23:13:21.427Z,4.63
2018-05-24T23:15:49.672Z,5.53
2018-05-24T23:18:18.668Z,4.93
2018-05-24T23:20:46.881Z,5.30
2018-05-24T23:23:15.083Z,4.53
2018-05-24T23:25:43.302Z,4.80
2018-05-24T23:28:11.506Z,5.30
2018-05-24T23:30:39.727Z,5.20
2018-05-24T23:33:08.103Z,5.00
2018-05-24T23:35:36.310Z,5.40
2018-05-24T23:38:04.514Z,5.67
2018-05-24T23:40:33.483Z,5.33
2018-05-24T23:43:01.684Z,5.37
2018-05-24T23:45:30.658Z,4.90
2018-05-24T23:47:58.896Z,5.63
2018-05-24T23:50:27.086Z,4.77
2018-05-24T23:52:55.292Z,5.80
2018-05-24T23:55:23.496Z,5.30
2018-05-24T23:57:51.716Z,5.27
